sensor_id;sensor_type;location;lat;lon;timestamp;pressure;altitude;pressure_sealevel;temperature;humidity
82413;BME280;72056;51.980;15.436;2023-12-07T00:01:17;100888.75;;;0.12;100.00
82413;BME280;72056;51.980;15.436;2023-12-07T00:03:43;100891.28;;;0.15;100.00
82413;BME280;72056;51.980;15.436;2023-12-07T00:06:10;100897.34;;;0.19;100.00
82413;BME280;72056;51.980;15.436;2023-12-07T00:08:37;100907.06;;;0.21;100.00
82413;BME280;72056;51.980;15.436;2023-12-07T00:11:05;100901.72;;;0.21;100.00
82413;BME280;72056;51.980;15.436;2023-12-07T00:13:36;100915.75;;;0.26;100.00
82413;BME280;72056;51.980;15.436;2023-12-07T00:16:03;100914.00;;;0.25;100.00
82413;BME280;72056;51.980;15.436;2023-12-07T00:18:30;100914.88;;;0.26;100.00
82413;BME280;72056;51.980;15.436;2023-12-07T00:21:01;100919.22;;;0.28;100.00
82413;BME280;72056;51.980;15.436;2023-12-07T00:23:27;100925.44;;;0.29;100.00
82413;BME280;72056;51.980;15.436;2023-12-07T00:25:55;100919.22;;;0.28;100.00
82413;BME280;72056;51.980;15.436;2023-12-07T00:28:21;100918.19;;;0.31;100.00
82413;BME280;72056;51.980;15.436;2023-12-07T00:30:48;100919.28;;;0.27;100.00
82413;BME280;72056;51.980;15.436;2023-12-07T00:33:15;100916.84;;;0.22;100.00
82413;BME280;72056;51.980;15.436;2023-12-07T00:35:43;100924.81;;;0.24;100.00
82413;BME280;72056;51.980;15.436;2023-12-07T00:38:09;100922.31;;;0.19;100.00
82413;BME280;72056;51.980;15.436;2023-12-07T00:40:41;100922.19;;;0.22;100.00
82413;BME280;72056;51.980;15.436;2023-12-07T00:43:07;100924.00;;;0.22;100.00
82413;BME280;72056;51.980;15.436;2023-12-07T00:45:38;100924.72;;;0.25;100.00
82413;BME280;72056;51.980;15.436;2023-12-07T00:48:05;100937.03;;;0.29;100.00
82413;BME280;72056;51.980;15.436;2023-12-07T00:50:32;100936.94;;;0.31;100.00
82413;BME280;72056;51.980;15.436;2023-12-07T00:52:59;100939.63;;;0.31;100.00
82413;BME280;72056;51.980;15.436;2023-12-07T00:55:26;100938.84;;;0.29;100.00
82413;BME280;72056;51.980;15.436;2023-12-07T00:57:57;100936.06;;;0.30;100.00
82413;BME280;72056;51.980;15.436;2023-12-07T01:00:24;100937.88;;;0.30;100.00
82413;BME280;72056;51.980;15.436;2023-12-07T01:02:51;100949.38;;;0.32;100.00
82413;BME280;72056;51.980;15.436;2023-12-07T01:05:18;100939.63;;;0.31;100.00
82413;BME280;72056;51.980;15.436;2023-12-07T01:07:45;100943.22;;;0.30;100.00
82413;BME280;72056;51.980;15.436;2023-12-07T01:10:12;100948.44;;;0.33;100.00
82413;BME280;72056;51.980;15.436;2023-12-07T01:12:40;100951.06;;;0.34;100.00
82413;BME280;72056;51.980;15.436;2023-12-07T01:15:07;100944.09;;;0.30;100.00
82413;BME280;72056;51.980;15.436;2023-12-07T01:17:34;100953.22;;;0.26;100.00
82413;BME280;72056;51.980;15.436;2023-12-07T01:20:01;100963.94;;;0.26;100.00
82413;BME280;72056;51.980;15.436;2023-12-07T01:22:30;100958.44;;;0.29;100.00
82413;BME280;72056;51.980;15.436;2023-12-07T01:24:57;100966.38;;;0.31;100.00
82413;BME280;72056;51.980;15.436;2023-12-07T01:27:23;100962.78;;;0.32;100.00
82413;BME280;72056;51.980;15.436;2023-12-07T01:29:50;100971.84;;;0.29;100.00
82413;BME280;72056;51.980;15.436;2023-12-07T01:32:16;100958.44;;;0.29;100.00
82413;BME280;72056;51.980;15.436;2023-12-07T01:34:45;100960.16;;;0.30;100.00
82413;BME280;72056;51.980;15.436;2023-12-07T01:37:12;100961.84;;;0.33;100.00
82413;BME280;72056;51.980;15.436;2023-12-07T01:39:43;100958.16;;;0.35;100.00
82413;BME280;72056;51.980;15.436;2023-12-07T01:42:10;100954.53;;;0.36;100.00
82413;BME280;72056;51.980;15.436;2023-12-07T01:44:39;100960.75;;;0.37;100.00
82413;BME280;72056;51.980;15.436;2023-12-07T01:47:06;100958.16;;;0.35;100.00
82413;BME280;72056;51.980;15.436;2023-12-07T01:49:35;100944.84;;;0.34;100.00
82413;BME280;72056;51.980;15.436;2023-12-07T01:52:02;100951.06;;;0.34;100.00
82413;BME280;72056;51.980;15.436;2023-12-07T01:54:30;100947.47;;;0.35;100.00
82413;BME280;72056;51.980;15.436;2023-12-07T01:56:57;100955.31;;;0.38;100.00
82413;BME280;72056;51.980;15.436;2023-12-07T01:59:25;100956.13;;;0.40;100.00
82413;BME280;72056;51.980;15.436;2023-12-07T02:01:52;100959.88;;;0.36;100.00
82413;BME280;72056;51.980;15.436;2023-12-07T02:04:19;100963.38;;;0.38;100.00
82413;BME280;72056;51.980;15.436;2023-12-07T02:06:45;100963.44;;;0.37;100.00
82413;BME280;72056;51.980;15.436;2023-12-07T02:09:12;100968.88;;;0.35;100.00
82413;BME280;72056;51.980;15.436;2023-12-07T02:11:39;100971.56;;;0.35;100.00
82413;BME280;72056;51.980;15.436;2023-12-07T02:14:06;100976.03;;;0.35;100.00
82413;BME280;72056;51.980;15.436;2023-12-07T02:16:45;100979.50;;;0.37;100.00
82413;BME280;72056;51.980;15.436;2023-12-07T02:22:10;100981.41;;;0.35;100.00
82413;BME280;72056;51.980;15.436;2023-12-07T02:24:47;100973.34;;;0.35;100.00
82413;BME280;72056;51.980;15.436;2023-12-07T02:27:36;100977.63;;;0.39;100.00
82413;BME280;72056;51.980;15.436;2023-12-07T02:30:05;100974.06;;;0.38;100.00
82413;BME280;72056;51.980;15.436;2023-12-07T02:32:33;100975.16;;;0.34;100.00
82413;BME280;72056;51.980;15.436;2023-12-07T02:35:01;100972.50;;;0.34;100.00
82413;BME280;72056;51.980;15.436;2023-12-07T02:37:28;100986.75;;;0.35;100.00
82413;BME280;72056;51.980;15.436;2023-12-07T02:39:59;100976.03;;;0.35;100.00
82413;BME280;72056;51.980;15.436;2023-12-07T02:42:26;100979.59;;;0.35;100.00
82413;BME280;72056;51.980;15.436;2023-12-07T02:44:53;100975.16;;;0.34;100.00
82413;BME280;72056;51.980;15.436;2023-12-07T02:47:21;100981.41;;;0.35;100.00
82413;BME280;72056;51.980;15.436;2023-12-07T02:49:48;101002.00;;;0.33;100.00
82413;BME280;72056;51.980;15.436;2023-12-07T02:52:14;100994.91;;;0.32;100.00
82413;BME280;72056;51.980;15.436;2023-12-07T02:54:42;100989.53;;;0.32;100.00
82413;BME280;72056;51.980;15.436;2023-12-07T02:57:08;100997.38;;;0.36;100.00
82413;BME280;72056;51.980;15.436;2023-12-07T02:59:35;100994.78;;;0.35;100.00
82413;BME280;72056;51.980;15.436;2023-12-07T03:02:03;101001.94;;;0.34;100.00
82413;BME280;72056;51.980;15.436;2023-12-07T03:04:31;101004.63;;;0.34;100.00
82413;BME280;72056;51.980;15.436;2023-12-07T03:06:58;101004.63;;;0.34;100.00
82413;BME280;72056;51.980;15.436;2023-12-07T03:09:24;101010.84;;;0.35;100.00
82413;BME280;72056;51.980;15.436;2023-12-07T03:11:51;101007.28;;;0.34;100.00
82413;BME280;72056;51.980;15.436;2023-12-07T03:14:22;101016.09;;;0.36;100.00
82413;BME280;72056;51.980;15.436;2023-12-07T03:16:49;101013.59;;;0.33;100.00
82413;BME280;72056;51.980;15.436;2023-12-07T03:19:16;101017.19;;;0.32;100.00
82413;BME280;72056;51.980;15.436;2023-12-07T03:21:43;101026.16;;;0.31;100.00
82413;BME280;72056;51.980;15.436;2023-12-07T03:24:10;101020.03;;;0.29;100.00
82413;BME280;72056;51.980;15.436;2023-12-07T03:26:37;101026.16;;;0.31;100.00
82413;BME280;72056;51.980;15.436;2023-12-07T03:29:04;101023.63;;;0.28;100.00
82413;BME280;72056;51.980;15.436;2023-12-07T03:31:31;101026.22;;;0.30;100.00
82413;BME280;72056;51.980;15.436;2023-12-07T03:33:59;101024.41;;;0.30;100.00
82413;BME280;72056;51.980;15.436;2023-12-07T03:36:27;101027.97;;;0.31;100.00
82413;BME280;72056;51.980;15.436;2023-12-07T03:38:54;101029.75;;;0.30;100.00
82413;BME280;72056;51.980;15.436;2023-12-07T03:41:21;101034.19;;;0.31;100.00
82413;BME280;72056;51.980;15.436;2023-12-07T03:43:48;101030.59;;;0.32;100.00
82413;BME280;72056;51.980;15.436;2023-12-07T03:46:15;101036.94;;;0.30;100.00
82413;BME280;72056;51.980;15.436;2023-12-07T03:48:43;101037.94;;;0.27;100.00
82413;BME280;72056;51.980;15.436;2023-12-07T03:51:13;101045.13;;;0.27;100.00
82413;BME280;72056;51.980;15.436;2023-12-07T03:53:40;101047.72;;;0.28;100.00
82413;BME280;72056;51.980;15.436;2023-12-07T03:56:08;101057.41;;;0.31;100.00
82413;BME280;72056;51.980;15.436;2023-12-07T03:58:36;101062.88;;;0.29;100.00
82413;BME280;72056;51.980;15.436;2023-12-07T04:01:03;101065.59;;;0.28;100.00
82413;BME280;72056;51.980;15.436;2023-12-07T04:03:30;101056.53;;;0.30;100.00
82413;BME280;72056;51.980;15.436;2023-12-07T04:05:57;101058.22;;;0.33;100.00
82413;BME280;72056;51.980;15.436;2023-12-07T04:08:24;101064.50;;;0.32;100.00
82413;BME280;72056;51.980;15.436;2023-12-07T04:10:51;101067.06;;;0.35;100.00
82413;BME280;72056;51.980;15.436;2023-12-07T04:13:18;101075.97;;;0.35;100.00
82413;BME280;72056;51.980;15.436;2023-12-07T04:15:45;101083.84;;;0.38;100.00
82413;BME280;72056;51.980;15.436;2023-12-07T04:18:13;101073.31;;;0.35;100.00
82413;BME280;72056;51.980;15.436;2023-12-07T04:20:40;101079.44;;;0.37;100.00
82413;BME280;72056;51.980;15.436;2023-12-07T04:23:07;101079.31;;;0.40;100.00
82413;BME280;72056;51.980;15.436;2023-12-07T04:25:34;101083.59;;;0.45;100.00
82413;BME280;72056;51.980;15.436;2023-12-07T04:28:01;101082.66;;;0.46;100.00
82413;BME280;72056;51.980;15.436;2023-12-07T04:30:28;101092.44;;;0.47;100.00
82413;BME280;72056;51.980;15.436;2023-12-07T04:32:54;101085.31;;;0.46;100.00
82413;BME280;72056;51.980;15.436;2023-12-07T04:35:21;101087.94;;;0.47;100.00
82413;BME280;72056;51.980;15.436;2023-12-07T04:37:52;101086.25;;;0.45;100.00
82413;BME280;72056;51.980;15.436;2023-12-07T04:40:19;101094.28;;;0.45;100.00
82413;BME280;72056;51.980;15.436;2023-12-07T04:42:46;101089.88;;;0.44;100.00
82413;BME280;72056;51.980;15.436;2023-12-07T04:45:13;101088.00;;;0.46;100.00
82413;BME280;72056;51.980;15.436;2023-12-07T04:47:40;101098.84;;;0.43;100.00
82413;BME280;72056;51.980;15.436;2023-12-07T04:50:08;101093.41;;;0.44;100.00
82413;BME280;72056;51.980;15.436;2023-12-07T04:52:36;101096.09;;;0.44;100.00
82413;BME280;72056;51.980;15.436;2023-12-07T04:55:06;101090.69;;;0.46;100.00
82413;BME280;72056;51.980;15.436;2023-12-07T04:57:36;101101.50;;;0.43;100.00
82413;BME280;72056;51.980;15.436;2023-12-07T05:00:04;101102.47;;;0.42;100.00
82413;BME280;72056;51.980;15.436;2023-12-07T05:02:36;101097.91;;;0.44;100.00
82413;BME280;72056;51.980;15.436;2023-12-07T05:05:04;101098.72;;;0.46;100.00
82413;BME280;72056;51.980;15.436;2023-12-07T05:07:31;101094.22;;;0.46;100.00
82413;BME280;72056;51.980;15.436;2023-12-07T05:09:58;101101.78;;;0.36;100.00
82413;BME280;72056;51.980;15.436;2023-12-07T05:12:25;101120.25;;;0.43;100.00
82413;BME280;72056;51.980;15.436;2023-12-07T05:14:52;101108.78;;;0.40;100.00
82413;BME280;72056;51.980;15.436;2023-12-07T05:17:22;101099.88;;;0.40;100.00
82413;BME280;72056;51.980;15.436;2023-12-07T05:19:49;101113.03;;;0.45;100.00
82413;BME280;72056;51.980;15.436;2023-12-07T05:22:16;101105.06;;;0.43;100.00
82413;BME280;72056;51.980;15.436;2023-12-07T05:24:44;101113.69;;;0.50;100.00
82413;BME280;72056;51.980;15.436;2023-12-07T05:27:19;101120.88;;;0.49;100.00
82413;BME280;72056;51.980;15.436;2023-12-07T05:29:46;101108.41;;;0.48;100.00
82413;BME280;72056;51.980;15.436;2023-12-07T05:32:13;101116.38;;;0.50;100.00
82413;BME280;72056;51.980;15.436;2023-12-07T05:34:40;101117.25;;;0.50;100.00
82413;BME280;72056;51.980;15.436;2023-12-07T05:37:07;101108.56;;;0.45;100.00
82413;BME280;72056;51.980;15.436;2023-12-07T05:39:33;101111.22;;;0.45;100.00
82413;BME280;72056;51.980;15.436;2023-12-07T05:42:01;101110.50;;;0.42;100.00
82413;BME280;72056;51.980;15.436;2023-12-07T05:44:34;101121.28;;;0.40;100.00
82413;BME280;72056;51.980;15.436;2023-12-07T05:47:02;101123.03;;;0.41;100.00
82413;BME280;72056;51.980;15.436;2023-12-07T05:49:29;101121.34;;;0.38;100.00
82413;BME280;72056;51.980;15.436;2023-12-07T05:51:58;101116.91;;;0.37;100.00
82413;BME280;72056;51.980;15.436;2023-12-07T05:54:26;101118.94;;;0.32;100.00
82413;BME280;72056;51.980;15.436;2023-12-07T05:56:55;101123.34;;;0.33;100.00
82413;BME280;72056;51.980;15.436;2023-12-07T05:59:23;101130.56;;;0.31;100.00
82413;BME280;72056;51.980;15.436;2023-12-07T06:01:53;101133.25;;;0.31;100.00
82413;BME280;72056;51.980;15.436;2023-12-07T06:04:20;101128.97;;;0.27;100.00
82413;BME280;72056;51.980;15.436;2023-12-07T06:06:47;101132.47;;;0.29;100.00
82413;BME280;72056;51.980;15.436;2023-12-07T06:09:14;101139.47;;;0.32;100.00
82413;BME280;72056;51.980;15.436;2023-12-07T06:11:41;101137.47;;;0.37;100.00
82413;BME280;72056;51.980;15.436;2023-12-07T06:14:09;101142.09;;;0.33;100.00
82413;BME280;72056;51.980;15.436;2023-12-07T06:16:36;101142.09;;;0.33;100.00
82413;BME280;72056;51.980;15.436;2023-12-07T06:19:04;101142.09;;;0.33;100.00
82413;BME280;72056;51.980;15.436;2023-12-07T06:21:30;101134.13;;;0.32;100.00
82413;BME280;72056;51.980;15.436;2023-12-07T06:23:57;101142.16;;;0.32;100.00
82413;BME280;72056;51.980;15.436;2023-12-07T06:26:28;101140.34;;;0.32;100.00
82413;BME280;72056;51.980;15.436;2023-12-07T06:28:55;101141.44;;;0.28;100.00
82413;BME280;72056;51.980;15.436;2023-12-07T06:31:22;101144.09;;;0.28;100.00
82413;BME280;72056;51.980;15.436;2023-12-07T06:33:53;101143.56;;;0.20;100.00
82413;BME280;72056;51.980;15.436;2023-12-07T06:36:24;101153.19;;;0.24;100.00
82413;BME280;72056;51.980;15.436;2023-12-07T06:38:54;101156.69;;;0.26;100.00
82413;BME280;72056;51.980;15.436;2023-12-07T06:41:24;101152.94;;;0.30;100.00
82413;BME280;72056;51.980;15.436;2023-12-07T06:43:52;101160.78;;;0.35;100.00
82413;BME280;72056;51.980;15.436;2023-12-07T06:46:22;101158.88;;;0.37;100.00
82413;BME280;72056;51.980;15.436;2023-12-07T06:48:49;101159.81;;;0.36;100.00
82413;BME280;72056;51.980;15.436;2023-12-07T06:51:19;101164.13;;;0.40;100.00
82413;BME280;72056;51.980;15.436;2023-12-07T06:53:47;101174.91;;;0.38;100.00
82413;BME280;72056;51.980;15.436;2023-12-07T06:56:15;101165.00;;;0.40;100.00
82413;BME280;72056;51.980;15.436;2023-12-07T06:58:41;101162.22;;;0.42;100.00
82413;BME280;72056;51.980;15.436;2023-12-07T07:01:09;101166.59;;;0.45;100.00
82413;BME280;72056;51.980;15.436;2023-12-07T07:03:35;101163.66;;;0.51;100.00
82413;BME280;72056;51.980;15.436;2023-12-07T07:06:03;101152.94;;;0.51;100.00
82413;BME280;72056;51.980;15.436;2023-12-07T07:08:30;101156.44;;;0.53;100.00
82413;BME280;72056;51.980;15.436;2023-12-07T07:11:12;101159.97;;;0.53;100.00
82413;BME280;72056;51.980;15.436;2023-12-07T07:13:59;101164.31;;;0.56;100.00
82413;BME280;72056;51.980;15.436;2023-12-07T07:16:26;101161.53;;;0.59;100.00
82413;BME280;72056;51.980;15.436;2023-12-07T07:18:53;101165.06;;;0.59;100.00
82413;BME280;72056;51.980;15.436;2023-12-07T07:21:19;101165.91;;;0.60;100.00
82413;BME280;72056;51.980;15.436;2023-12-07T07:23:46;101166.59;;;0.65;100.00
82413;BME280;72056;51.980;15.436;2023-12-07T07:26:18;101166.41;;;0.69;100.00
82413;BME280;72056;51.980;15.436;2023-12-07T07:28:44;101173.63;;;0.67;100.00
82413;BME280;72056;51.980;15.436;2023-12-07T07:31:12;101171.69;;;0.71;100.00
82413;BME280;72056;51.980;15.436;2023-12-07T07:33:39;101164.25;;;0.77;100.00
82413;BME280;72056;51.980;15.436;2023-12-07T07:36:09;101166.78;;;0.80;100.00
82413;BME280;72056;51.980;15.436;2023-12-07T07:38:39;101171.00;;;0.86;100.00
82413;BME280;72056;51.980;15.436;2023-12-07T07:41:10;101167.59;;;0.82;100.00
82413;BME280;72056;51.980;15.436;2023-12-07T07:43:37;101169.19;;;0.87;100.00
82413;BME280;72056;51.980;15.436;2023-12-07T07:46:04;101162.84;;;0.89;100.00
82413;BME280;72056;51.980;15.436;2023-12-07T07:48:31;101166.06;;;0.96;100.00
82413;BME280;72056;51.980;15.436;2023-12-07T07:50:58;101163.34;;;0.97;100.00
82413;BME280;72056;51.980;15.436;2023-12-07T07:53:30;101171.09;;;1.03;100.00
82413;BME280;72056;51.980;15.436;2023-12-07T07:55:56;101168.06;;;1.11;100.00
82413;BME280;72056;51.980;15.436;2023-12-07T07:58:24;101159.00;;;1.13;100.00
82413;BME280;72056;51.980;15.436;2023-12-07T08:00:55;101167.50;;;1.23;100.00
82413;BME280;72056;51.980;15.436;2023-12-07T08:03:21;101173.69;;;1.25;100.00
82413;BME280;72056;51.980;15.436;2023-12-07T08:05:47;101177.88;;;1.31;100.00
82413;BME280;72056;51.980;15.436;2023-12-07T08:08:14;101162.56;;;1.33;100.00
82413;BME280;72056;51.980;15.436;2023-12-07T08:10:40;101171.19;;;1.39;100.00
82413;BME280;72056;51.980;15.436;2023-12-07T08:13:07;101170.97;;;1.44;100.00
82413;BME280;72056;51.980;15.436;2023-12-07T08:15:35;101170.56;;;1.53;100.00
82413;BME280;72056;51.980;15.436;2023-12-07T08:18:02;101180.34;;;1.54;100.00
82413;BME280;72056;51.980;15.436;2023-12-07T08:20:29;101182.81;;;1.58;100.00
82413;BME280;72056;51.980;15.436;2023-12-07T08:22:56;101177.56;;;1.55;100.00
82413;BME280;72056;51.980;15.436;2023-12-07T08:25:23;101177.66;;;1.54;100.00
82413;BME280;72056;51.980;15.436;2023-12-07T08:27:49;101185.31;;;1.61;100.00
82413;BME280;72056;51.980;15.436;2023-12-07T08:30:16;101181.47;;;1.67;100.00
82413;BME280;72056;51.980;15.436;2023-12-07T08:32:45;101177.50;;;1.76;100.00
82413;BME280;72056;51.980;15.436;2023-12-07T08:35:11;101179.81;;;1.83;100.00
82413;BME280;72056;51.980;15.436;2023-12-07T08:37:39;101180.69;;;1.84;100.00
82413;BME280;72056;51.980;15.436;2023-12-07T08:40:08;101180.44;;;1.88;100.00
82413;BME280;72056;51.980;15.436;2023-12-07T08:42:37;101189.31;;;1.90;100.00
82413;BME280;72056;51.980;15.436;2023-12-07T08:45:06;101188.28;;;1.93;100.00
82413;BME280;72056;51.980;15.436;2023-12-07T08:47:33;101190.00;;;1.94;100.00
82413;BME280;72056;51.980;15.436;2023-12-07T08:50:01;101195.38;;;1.94;100.00
82413;BME280;72056;51.980;15.436;2023-12-07T08:52:27;101197.91;;;1.97;100.00
82413;BME280;72056;51.980;15.436;2023-12-07T08:54:58;101204.16;;;1.97;100.00
82413;BME280;72056;51.980;15.436;2023-12-07T08:57:30;101217.28;;;2.03;100.00
82413;BME280;72056;51.980;15.436;2023-12-07T09:00:00;101210.09;;;2.04;100.00
82413;BME280;72056;51.980;15.436;2023-12-07T09:02:26;101214.16;;;2.13;100.00
82413;BME280;72056;51.980;15.436;2023-12-07T09:04:54;101206.78;;;2.16;100.00
82413;BME280;72056;51.980;15.436;2023-12-07T09:07:20;101219.78;;;2.25;100.00
82413;BME280;72056;51.980;15.436;2023-12-07T09:09:47;101217.66;;;2.32;100.00
82413;BME280;72056;51.980;15.436;2023-12-07T09:12:14;101210.31;;;2.35;100.00
82413;BME280;72056;51.980;15.436;2023-12-07T09:14:41;101210.81;;;2.43;100.00
82413;BME280;72056;51.980;15.436;2023-12-07T09:17:08;101214.81;;;2.52;100.00
82413;BME280;72056;51.980;15.436;2023-12-07T09:19:35;101215.31;;;2.60;100.00
82413;BME280;72056;51.980;15.436;2023-12-07T09:22:01;101215.69;;;2.70;100.00
82413;BME280;72056;51.980;15.436;2023-12-07T09:24:28;101221.94;;;2.70;100.00
82413;BME280;72056;51.980;15.436;2023-12-07T09:26:54;101224.63;;;2.70;100.00
82413;BME280;72056;51.980;15.436;2023-12-07T09:29:25;101232.22;;;2.79;100.00
82413;BME280;72056;51.980;15.436;2023-12-07T09:31:53;101229.28;;;2.84;100.00
82413;BME280;72056;51.980;15.436;2023-12-07T09:34:20;101226.28;;;2.90;100.00
82413;BME280;72056;51.980;15.436;2023-12-07T09:37:05;101223.66;;;2.88;100.00
82413;BME280;72056;51.980;15.436;2023-12-07T09:39:32;101231.50;;;2.93;100.00
82413;BME280;72056;51.980;15.436;2023-12-07T09:41:59;101224.38;;;2.92;100.00
82413;BME280;72056;51.980;15.436;2023-12-07T09:44:27;101228.03;;;2.91;100.00
82413;BME280;72056;51.980;15.436;2023-12-07T09:46:54;101223.19;;;2.98;100.00
82413;BME280;72056;51.980;15.436;2023-12-07T09:49:21;101221.75;;;3.08;100.00
82413;BME280;72056;51.980;15.436;2023-12-07T09:51:48;101221.44;;;3.14;100.00
82413;BME280;72056;51.980;15.436;2023-12-07T09:54:16;101217.63;;;3.18;100.00
82413;BME280;72056;51.980;15.436;2023-12-07T09:56:44;101221.97;;;3.20;100.00
82413;BME280;72056;51.980;15.436;2023-12-07T09:59:11;101220.03;;;3.22;100.00
82413;BME280;72056;51.980;15.436;2023-12-07T10:01:38;101215.47;;;3.24;100.00
82413;BME280;72056;51.980;15.436;2023-12-07T10:04:29;101218.00;;;3.27;100.00
82413;BME280;72056;51.980;15.436;2023-12-07T10:07:00;101214.34;;;3.28;100.00
82413;BME280;72056;51.980;15.436;2023-12-07T10:09:28;101219.66;;;3.30;100.00
82413;BME280;72056;51.980;15.436;2023-12-07T10:12:02;101210.78;;;3.28;100.00
82413;BME280;72056;51.980;15.436;2023-12-07T10:14:30;101207.94;;;3.31;100.00
82413;BME280;72056;51.980;15.436;2023-12-07T10:17:01;101212.19;;;3.35;100.00
82413;BME280;72056;51.980;15.436;2023-12-07T10:19:28;101203.78;;;3.41;100.00
82413;BME280;72056;51.980;15.436;2023-12-07T10:21:56;101208.75;;;3.49;100.00
82413;BME280;72056;51.980;15.436;2023-12-07T10:24:27;101201.53;;;3.49;100.00
82413;BME280;72056;51.980;15.436;2023-12-07T10:26:56;101205.13;;;3.65;100.00
82413;BME280;72056;51.980;15.436;2023-12-07T10:29:27;101192.88;;;3.76;100.00
82413;BME280;72056;51.980;15.436;2023-12-07T10:32:00;101203.28;;;3.82;100.00
82413;BME280;72056;51.980;15.436;2023-12-07T10:34:28;101204.00;;;3.85;100.00
82413;BME280;72056;51.980;15.436;2023-12-07T10:36:54;101195.91;;;3.85;100.00
82413;BME280;72056;51.980;15.436;2023-12-07T10:39:24;101202.78;;;3.91;100.00
82413;BME280;72056;51.980;15.436;2023-12-07T10:41:56;101203.56;;;3.93;100.00
82413;BME280;72056;51.980;15.436;2023-12-07T10:44:26;101203.56;;;3.93;100.00
82413;BME280;72056;51.980;15.436;2023-12-07T10:46:55;101193.75;;;3.92;100.00
82413;BME280;72056;51.980;15.436;2023-12-07T10:49:25;101193.22;;;3.85;100.00
82413;BME280;72056;51.980;15.436;2023-12-07T10:52:00;101188.44;;;3.90;100.00
82413;BME280;72056;51.980;15.436;2023-12-07T10:54:54;101193.63;;;3.93;100.00
82413;BME280;72056;51.980;15.436;2023-12-07T10:57:32;101193.84;;;3.90;100.00
82413;BME280;72056;51.980;15.436;2023-12-07T11:00:01;101190.47;;;3.87;100.00
82413;BME280;72056;51.980;15.436;2023-12-07T11:02:29;101197.16;;;3.80;100.00
82413;BME280;72056;51.980;15.436;2023-12-07T11:04:59;101191.75;;;3.80;100.00
82413;BME280;72056;51.980;15.436;2023-12-07T11:07:43;101180.13;;;3.79;100.00
82413;BME280;72056;51.980;15.436;2023-12-07T11:10:21;101182.44;;;3.69;100.00
82413;BME280;72056;51.980;15.436;2023-12-07T11:13:12;101188.00;;;3.66;100.00
82413;BME280;72056;51.980;15.436;2023-12-07T11:15:46;101184.25;;;3.53;100.00
82413;BME280;72056;51.980;15.436;2023-12-07T11:18:15;101187.75;;;3.55;100.00
82413;BME280;72056;51.980;15.436;2023-12-07T11:20:46;101187.41;;;3.61;100.00
82413;BME280;72056;51.980;15.436;2023-12-07T11:23:36;101184.63;;;3.63;100.00
82413;BME280;72056;51.980;15.436;2023-12-07T11:26:03;101193.13;;;3.55;100.00
82413;BME280;72056;51.980;15.436;2023-12-07T11:28:38;101183.16;;;3.57;100.00
82413;BME280;72056;51.980;15.436;2023-12-07T11:31:08;101184.53;;;3.49;100.00
82413;BME280;72056;51.980;15.436;2023-12-07T11:33:38;101195.78;;;3.40;100.00
82413;BME280;72056;51.980;15.436;2023-12-07T11:36:10;101186.88;;;3.39;100.00
82413;BME280;72056;51.980;15.436;2023-12-07T11:41:29;101187.38;;;3.46;100.00
82413;BME280;72056;51.980;15.436;2023-12-07T11:43:59;101176.25;;;3.52;100.00
82413;BME280;72056;51.980;15.436;2023-12-07T11:46:30;101181.50;;;3.55;100.00
82413;BME280;72056;51.980;15.436;2023-12-07T11:48:58;101183.06;;;3.59;100.00
82413;BME280;72056;51.980;15.436;2023-12-07T11:51:29;101180.19;;;3.62;100.00
82413;BME280;72056;51.980;15.436;2023-12-07T11:54:00;101181.06;;;3.62;100.00
82413;BME280;72056;51.980;15.436;2023-12-07T11:56:27;101175.84;;;3.59;100.00
82413;BME280;72056;51.980;15.436;2023-12-07T11:58:59;101175.50;;;3.50;100.00
82413;BME280;72056;51.980;15.436;2023-12-07T12:01:26;101177.41;;;3.48;100.00
82413;BME280;72056;51.980;15.436;2023-12-07T12:03:59;101186.34;;;3.48;100.00
82413;BME280;72056;51.980;15.436;2023-12-07T12:06:26;101183.66;;;3.48;100.00
82413;BME280;72056;51.980;15.436;2023-12-07T12:08:57;101181.56;;;3.38;100.00
82413;BME280;72056;51.980;15.436;2023-12-07T12:11:24;101174.25;;;3.40;100.00
82413;BME280;72056;51.980;15.436;2023-12-07T12:13:51;101176.34;;;3.35;100.00
82413;BME280;72056;51.980;15.436;2023-12-07T12:16:19;101166.09;;;3.25;100.00
82413;BME280;72056;51.980;15.436;2023-12-07T12:18:49;101169.03;;;3.21;100.00
82413;BME280;72056;51.980;15.436;2023-12-07T12:21:16;101180.91;;;3.17;100.00
82413;BME280;72056;51.980;15.436;2023-12-07T12:23:43;101175.22;;;3.06;100.00
82413;BME280;72056;51.980;15.436;2023-12-07T12:26:11;101189.81;;;3.02;100.00
82413;BME280;72056;51.980;15.436;2023-12-07T12:28:38;101188.06;;;3.01;100.00
82413;BME280;72056;51.980;15.436;2023-12-07T12:31:10;101183.56;;;3.01;100.00
82413;BME280;72056;51.980;15.436;2023-12-07T12:33:37;101184.56;;;2.99;100.00
82413;BME280;72056;51.980;15.436;2023-12-07T12:36:06;101190.69;;;3.02;100.00
82413;BME280;72056;51.980;15.436;2023-12-07T12:38:33;101183.38;;;3.04;100.00
82413;BME280;72056;51.980;15.436;2023-12-07T12:41:00;101185.31;;;3.02;100.00
82413;BME280;72056;51.980;15.436;2023-12-07T12:43:33;101191.56;;;3.03;100.00
82413;BME280;72056;51.980;15.436;2023-12-07T12:46:00;101191.56;;;3.03;100.00
82413;BME280;72056;51.980;15.436;2023-12-07T12:48:27;101189.63;;;3.05;100.00
82413;BME280;72056;51.980;15.436;2023-12-07T12:50:55;101185.91;;;3.07;100.00
82413;BME280;72056;51.980;15.436;2023-12-07T12:53:22;101180.63;;;3.06;100.00